createdAt,value
2018-06-11T00:03:16.367Z,73
2018-06-11T00:08:46.094Z,73
2018-06-11T00:14:14.932Z,73
2018-06-11T00:19:43.706Z,72
2018-06-11T00:25:13.511Z,72
2018-06-11T00:30:43.402Z,72
2018-06-11T00:36:13.226Z,72
2018-06-11T00:41:42.958Z,71
2018-06-11T00:47:11.802Z,71
2018-06-11T00:52:40.633Z,71
2018-06-11T00:58:09.441Z,71
2018-06-11T01:03:38.204Z,71
2018-06-11T01:09:08.082Z,71
2018-06-11T01:14:36.849Z,71
2018-06-11T01:20:06.687Z,72
2018-06-11T01:25:36.471Z,72
2018-06-11T01:31:06.280Z,72
2018-06-11T01:36:35.077Z,72
2018-06-11T01:42:03.877Z,72
2018-06-11T01:47:33.682Z,72
2018-06-11T01:53:03.467Z,72
2018-06-11T01:58:32.367Z,72
2018-06-11T02:04:01.080Z,72
2018-06-11T02:09:30.885Z,72
2018-06-11T02:14:59.857Z,73
2018-06-11T02:20:29.521Z,73
2018-06-11T02:25:59.262Z,73
2018-06-11T02:31:28.255Z,73
2018-06-11T02:36:57.842Z,73
2018-06-11T02:42:26.760Z,73
2018-06-11T02:47:55.349Z,74
2018-06-11T02:47:55.832Z,74
2018-06-11T02:53:25.125Z,73
2018-06-11T02:58:54.028Z,73
2018-06-11T03:04:23.645Z,73
2018-06-11T03:09:52.386Z,73
2018-06-11T03:15:21.106Z,73
2018-06-11T03:20:49.973Z,73
2018-06-11T03:26:19.588Z,72
2018-06-11T03:31:48.335Z,72
2018-06-11T03:37:18.114Z,72
2018-06-11T03:42:47.819Z,72
2018-06-11T03:48:17.618Z,72
2018-06-11T03:53:46.533Z,72
2018-06-11T03:59:16.086Z,72
2018-06-11T04:04:45.804Z,71
2018-06-11T04:10:14.585Z,71
2018-06-11T04:15:44.329Z,71
2018-06-11T04:21:13.110Z,71
2018-06-11T04:26:41.940Z,71
2018-06-11T04:32:11.820Z,71
2018-06-11T04:37:41.486Z,71
2018-06-11T04:43:10.271Z,71
2018-06-11T04:48:39.059Z,70
2018-06-11T04:54:07.893Z,70
2018-06-11T04:59:36.671Z,70
2018-06-11T05:05:06.492Z,71
2018-06-11T05:10:36.299Z,71
2018-06-11T05:16:06.113Z,71
2018-06-11T05:21:35.262Z,71
2018-06-11T05:27:04.761Z,71
2018-06-11T05:32:33.616Z,71
2018-06-11T05:38:03.401Z,71
2018-06-11T05:43:33.207Z,71
2018-06-11T05:49:02.150Z,71
2018-06-11T05:54:30.952Z,71
2018-06-11T05:59:59.722Z,71
2018-06-11T06:05:29.492Z,71
2018-06-11T06:10:59.317Z,71
2018-06-11T06:16:28.095Z,71
2018-06-11T06:21:57.954Z,70
2018-06-11T06:27:26.923Z,70
2018-06-11T06:32:56.813Z,69
2018-06-11T06:38:25.650Z,70
2018-06-11T06:43:55.502Z,70
2018-06-11T06:49:24.465Z,69
2018-06-11T06:54:53.277Z,69
2018-06-11T07:00:22.188Z,69
2018-06-11T07:05:52.119Z,68
2018-06-11T07:11:22.072Z,69
2018-06-11T07:16:50.950Z,69
2018-06-11T07:22:19.776Z,69
2018-06-11T07:27:48.735Z,69
2018-06-11T07:33:18.584Z,68
2018-06-11T07:38:47.575Z,68
2018-06-11T07:44:17.466Z,68
2018-06-11T07:49:46.356Z,69
2018-06-11T07:55:15.265Z,69
2018-06-11T08:00:45.138Z,68
2018-06-11T08:06:15.220Z,68
2018-06-11T08:11:43.998Z,68
2018-06-11T08:17:13.875Z,67
2018-06-11T08:22:43.817Z,67
2018-06-11T08:28:13.743Z,67
2018-06-11T08:33:42.900Z,67
2018-06-11T08:39:12.481Z,67
2018-06-11T08:44:42.360Z,67
2018-06-11T08:50:12.330Z,66
2018-06-11T08:55:42.202Z,66
2018-06-11T09:01:11.154Z,65
2018-06-11T09:06:40.174Z,65
2018-06-11T09:12:10.131Z,65
2018-06-11T09:17:39.118Z,65
2018-06-11T09:23:09.252Z,65
2018-06-11T09:28:38.108Z,65
2018-06-11T09:34:08.010Z,64
2018-06-11T09:39:38.025Z,64
2018-06-11T09:45:07.073Z,64
2018-06-11T09:50:37.026Z,63
2018-06-11T09:56:07.068Z,64
2018-06-11T10:01:36.106Z,64
2018-06-11T10:07:06.040Z,63
2018-06-11T10:12:35.107Z,63
2018-06-11T10:18:04.170Z,63
2018-06-11T10:23:33.227Z,62
2018-06-11T10:29:02.318Z,62
2018-06-11T10:34:31.395Z,62
2018-06-11T10:40:00.431Z,62
2018-06-11T10:45:29.681Z,62
2018-06-11T10:50:59.737Z,62
2018-06-11T10:56:29.747Z,62
2018-06-11T11:02:00.041Z,62
2018-06-11T11:07:29.128Z,61
2018-06-11T11:12:59.097Z,61
2018-06-11T11:18:28.235Z,61
2018-06-11T11:23:57.381Z,61
2018-06-11T11:29:27.405Z,61
2018-06-11T11:34:57.543Z,61
2018-06-11T11:40:27.677Z,61
2018-06-11T11:45:56.764Z,61
2018-06-11T11:51:25.839Z,61
2018-06-11T11:56:55.974Z,61
2018-06-11T12:02:26.019Z,61
2018-06-11T12:07:56.341Z,61
2018-06-11T12:13:25.222Z,61
2018-06-11T12:18:54.358Z,61
2018-06-11T12:24:23.833Z,61
2018-06-11T12:29:52.492Z,61
2018-06-11T12:35:21.611Z,60
2018-06-11T12:40:51.690Z,60
2018-06-11T12:46:20.890Z,60
2018-06-11T12:51:50.025Z,60
2018-06-11T12:57:19.526Z,60
2018-06-11T13:02:49.235Z,60
2018-06-11T13:08:18.351Z,60
2018-06-11T13:13:48.522Z,60
2018-06-11T13:19:17.736Z,59
2018-06-11T13:24:46.903Z,60
2018-06-11T13:30:17.047Z,60
2018-06-11T13:35:47.319Z,59
2018-06-11T13:41:17.376Z,60
2018-06-11T13:46:47.562Z,60
2018-06-11T13:52:17.923Z,59
2018-06-11T13:57:46.889Z,60
2018-06-11T14:03:17.044Z,59
2018-06-11T14:08:46.126Z,59
2018-06-11T14:14:16.358Z,60
2018-06-11T14:19:45.336Z,60
2018-06-11T14:25:14.366Z,60
2018-06-11T14:30:44.470Z,61
2018-06-11T14:36:14.689Z,60
2018-06-11T14:41:43.688Z,60
2018-06-11T14:47:12.604Z,60
2018-06-11T14:52:42.723Z,60
2018-06-11T14:58:12.823Z,60
2018-06-11T15:03:42.867Z,60
2018-06-11T15:09:12.047Z,59
2018-06-11T15:14:41.214Z,60
2018-06-11T15:20:10.229Z,60
2018-06-11T15:25:40.440Z,60
2018-06-11T15:31:09.301Z,60
2018-06-11T15:36:38.325Z,60
2018-06-11T15:42:08.373Z,60
2018-06-11T15:47:37.390Z,61
2018-06-11T15:53:06.437Z,61
2018-06-11T15:58:36.452Z,61
2018-06-11T16:04:05.523Z,61
2018-06-11T16:09:35.550Z,61
2018-06-11T16:15:05.574Z,60
2018-06-11T16:20:35.602Z,60
2018-06-11T16:26:05.555Z,61
2018-06-11T16:31:35.696Z,61
2018-06-11T16:31:36.774Z,61
2018-06-11T16:37:05.683Z,61
2018-06-11T16:42:35.416Z,61
2018-06-11T16:48:05.402Z,61
2018-06-11T16:53:35.346Z,61
2018-06-11T16:59:05.291Z,61
2018-06-11T17:04:35.154Z,61
2018-06-11T17:10:05.078Z,61
2018-06-11T17:15:35.100Z,61
2018-06-11T17:21:03.838Z,61
2018-06-11T17:26:32.780Z,61
2018-06-11T17:32:01.642Z,61
2018-06-11T17:37:31.574Z,62
2018-06-11T17:43:00.371Z,62
2018-06-11T17:48:29.260Z,62
2018-06-11T17:53:58.114Z,61
2018-06-11T17:59:27.970Z,61
2018-06-11T18:04:56.945Z,61
2018-06-11T18:10:26.675Z,61
2018-06-11T18:15:55.520Z,61
2018-06-11T18:21:24.359Z,61
2018-06-11T18:26:54.301Z,61
2018-06-11T18:32:22.959Z,61
2018-06-11T18:37:51.720Z,61
2018-06-11T18:43:21.483Z,61
2018-06-11T18:48:51.240Z,61
2018-06-11T18:54:21.072Z,61
2018-06-11T18:59:50.759Z,61
2018-06-11T19:05:20.814Z,61
2018-06-11T19:10:49.260Z,61
2018-06-11T19:16:18.005Z,61
2018-06-11T19:21:46.754Z,61
2018-06-11T19:27:15.887Z,61
2018-06-11T19:32:44.291Z,61
2018-06-11T19:38:12.939Z,61
2018-06-11T19:43:41.700Z,61
2018-06-11T19:49:10.546Z,61
2018-06-11T19:54:39.171Z,62
2018-06-11T20:00:08.930Z,62
2018-06-11T20:05:37.562Z,62
2018-06-11T20:11:07.308Z,63
2018-06-11T20:16:35.966Z,63
2018-06-11T20:22:05.792Z,63
2018-06-11T20:27:34.503Z,63
2018-06-11T20:33:04.015Z,64
2018-06-11T20:38:32.729Z,64
2018-06-11T20:44:02.409Z,64
2018-06-11T20:49:31.088Z,63
2018-06-11T20:55:00.230Z,64
2018-06-11T21:00:29.694Z,64
2018-06-11T21:05:58.073Z,64
2018-06-11T21:11:27.750Z,64
2018-06-11T21:16:56.519Z,64
2018-06-11T21:22:25.101Z,64
2018-06-11T21:27:54.786Z,64
2018-06-11T21:33:23.522Z,64
2018-06-11T21:38:52.218Z,64
2018-06-11T21:44:20.871Z,64
2018-06-11T21:49:49.530Z,64
2018-06-11T21:55:18.223Z,64
2018-06-11T22:00:46.862Z,64
2018-06-11T22:06:16.478Z,65
2018-06-11T22:11:45.134Z,65
2018-06-11T22:17:14.784Z,64
2018-06-11T22:22:43.466Z,64
2018-06-11T22:28:12.077Z,64
2018-06-11T22:33:40.815Z,64
2018-06-11T22:39:09.567Z,64
2018-06-11T22:44:39.261Z,64
2018-06-11T22:50:08.687Z,64
2018-06-11T22:55:37.343Z,65
2018-06-11T23:01:06.974Z,65
2018-06-11T23:06:35.649Z,65
2018-06-11T23:12:04.301Z,65
2018-06-11T23:17:33.887Z,65
2018-06-11T23:23:02.560Z,65
2018-06-11T23:28:31.227Z,65
2018-06-11T23:34:00.836Z,65
2018-06-11T23:39:29.474Z,65
2018-06-11T23:44:59.177Z,65
2018-06-11T23:50:28.735Z,65
2018-06-11T23:55:57.415Z,65
